createdAt,value
2019-01-25T00:01:09.728Z,15.20
2019-01-25T00:03:39.120Z,15.43
2019-01-25T00:06:09.535Z,16.53
2019-01-25T00:08:38.823Z,15.63
2019-01-25T00:11:08.413Z,15.40
2019-01-25T00:13:37.982Z,14.70
2019-01-25T00:16:07.461Z,15.27
2019-01-25T00:18:36.867Z,17.03
2019-01-25T00:21:06.466Z,15.87
2019-01-25T00:23:35.870Z,16.27
2019-01-25T00:26:05.735Z,16.10
2019-01-25T00:28:35.126Z,17.63
2019-01-25T00:31:04.559Z,16.10
2019-01-25T00:33:33.913Z,17.97
2019-01-25T00:36:03.276Z,16.57
2019-01-25T00:38:32.722Z,15.43
2019-01-25T00:41:02.031Z,16.97
2019-01-25T00:43:31.438Z,15.20
2019-01-25T00:46:00.799Z,16.77
2019-01-25T00:48:30.260Z,15.87
2019-01-25T00:50:59.642Z,16.63
2019-01-25T00:53:28.965Z,16.17
2019-01-25T00:55:58.422Z,15.93
2019-01-25T00:58:27.933Z,16.30
2019-01-25T01:00:57.333Z,16.03
2019-01-25T01:03:26.816Z,17.20
2019-01-25T01:05:56.295Z,17.87
2019-01-25T01:08:25.745Z,15.33
2019-01-25T01:10:55.179Z,15.23
2019-01-25T01:13:24.573Z,15.30
2019-01-25T01:15:54.056Z,14.90
2019-01-25T01:18:23.369Z,16.33
2019-01-25T01:20:52.839Z,16.27
2019-01-25T01:23:22.738Z,17.00
2019-01-25T01:25:52.128Z,14.73
2019-01-25T01:28:21.549Z,14.27
2019-01-25T01:30:50.962Z,15.10
2019-01-25T01:33:20.356Z,14.40
2019-01-25T01:35:49.788Z,15.60
2019-01-25T01:38:19.382Z,15.53
2019-01-25T01:40:48.789Z,15.57
2019-01-25T01:43:18.135Z,16.87
2019-01-25T01:45:47.554Z,14.83
2019-01-25T01:48:16.976Z,13.67
2019-01-25T01:50:46.334Z,14.33
2019-01-25T01:53:15.741Z,12.53
2019-01-25T01:55:45.113Z,14.10
2019-01-25T01:58:14.490Z,17.20
2019-01-25T02:00:43.928Z,13.73
2019-01-25T02:03:13.286Z,14.77
2019-01-25T02:05:42.648Z,14.47
2019-01-25T02:08:11.000Z,13.17
2019-01-25T02:10:40.418Z,14.23
2019-01-25T02:13:09.841Z,13.57
2019-01-25T02:15:40.712Z,15.70
2019-01-25T02:18:10.117Z,13.80
2019-01-25T02:20:40.476Z,13.57
2019-01-25T02:23:09.994Z,13.40
2019-01-25T02:25:39.457Z,12.87
2019-01-25T02:28:08.893Z,13.33
2019-01-25T02:30:38.405Z,13.00
2019-01-25T02:33:07.968Z,13.70
2019-01-25T02:35:37.536Z,13.40
2019-01-25T02:38:07.006Z,13.27
2019-01-25T02:40:39.038Z,14.47
2019-01-25T02:43:07.596Z,13.77
2019-01-25T02:45:37.185Z,14.07
2019-01-25T02:48:06.771Z,14.00
2019-01-25T02:50:36.278Z,15.30
2019-01-25T02:53:05.823Z,14.63
2019-01-25T02:55:35.334Z,13.63
2019-01-25T02:58:05.298Z,14.47
2019-01-25T03:00:34.839Z,14.57
2019-01-25T03:03:04.682Z,13.93
2019-01-25T03:05:34.240Z,16.00
2019-01-25T03:08:03.819Z,14.43
2019-01-25T03:10:33.313Z,13.60
2019-01-25T03:13:02.863Z,14.70
2019-01-25T03:15:32.315Z,15.10
2019-01-25T03:18:01.814Z,15.30
2019-01-25T03:20:31.294Z,14.77
2019-01-25T03:23:00.771Z,15.90
2019-01-25T03:25:30.316Z,17.03
2019-01-25T03:27:59.803Z,15.43
2019-01-25T03:30:29.354Z,19.57
2019-01-25T03:32:58.818Z,17.83
2019-01-25T03:35:28.231Z,17.00
2019-01-25T03:37:57.760Z,18.60
2019-01-25T03:40:30.242Z,19.43
2019-01-25T03:42:59.764Z,20.50
2019-01-25T03:45:29.396Z,19.27
2019-01-25T03:47:58.846Z,17.40
2019-01-25T03:50:30.255Z,19.00
2019-01-25T03:52:59.685Z,18.47
2019-01-25T03:55:29.345Z,18.40
2019-01-25T03:57:58.764Z,19.20
2019-01-25T04:00:29.930Z,18.53
2019-01-25T04:02:59.733Z,17.43
2019-01-25T04:05:29.228Z,17.03
2019-01-25T04:07:58.781Z,22.03
2019-01-25T04:10:29.255Z,20.63
2019-01-25T04:12:58.831Z,19.03
2019-01-25T04:15:31.043Z,18.57
2019-01-25T04:18:00.485Z,17.37
2019-01-25T04:20:30.302Z,17.60
2019-01-25T04:23:00.043Z,16.47
2019-01-25T04:25:29.564Z,20.60
2019-01-25T04:27:59.226Z,17.60
2019-01-25T04:30:30.522Z,17.20
2019-01-25T04:32:59.965Z,17.23
2019-01-25T04:35:29.420Z,16.13
2019-01-25T04:37:58.874Z,17.73
2019-01-25T04:40:28.203Z,15.77
2019-01-25T04:42:57.665Z,17.53
2019-01-25T04:45:27.100Z,18.13
2019-01-25T04:47:56.544Z,18.07
2019-01-25T04:50:26.782Z,19.60
2019-01-25T04:52:56.284Z,20.50
2019-01-25T04:55:33.624Z,19.00
2019-01-25T04:58:14.560Z,19.30
2019-01-25T05:00:44.030Z,17.77
2019-01-25T05:03:13.672Z,17.00
2019-01-25T05:08:12.843Z,17.20
2019-01-25T05:10:42.211Z,24.13
2019-01-25T05:13:11.653Z,22.10
2019-01-25T05:15:41.111Z,26.40
2019-01-25T05:18:10.832Z,26.60
2019-01-25T05:20:41.299Z,24.77
2019-01-25T05:23:10.877Z,17.63
2019-01-25T05:25:40.353Z,15.40
2019-01-25T05:28:20.632Z,15.77
2019-01-25T05:30:58.618Z,14.43
2019-01-25T05:33:28.183Z,14.20
2019-01-25T05:35:57.675Z,15.27
2019-01-25T05:38:46.970Z,15.27
2019-01-25T05:41:16.335Z,15.83
2019-01-25T05:43:45.732Z,16.93
2019-01-25T05:46:15.109Z,14.93
2019-01-25T05:48:44.500Z,14.97
2019-01-25T05:51:13.980Z,16.83
2019-01-25T05:53:51.198Z,14.93
2019-01-25T05:56:20.936Z,15.50
2019-01-25T05:58:50.321Z,15.47
2019-01-25T06:01:19.773Z,17.87
2019-01-25T06:03:49.304Z,15.97
2019-01-25T06:06:18.627Z,17.27
2019-01-25T06:08:47.994Z,15.10
2019-01-25T06:11:17.400Z,15.70
2019-01-25T06:13:47.136Z,15.37
2019-01-25T06:16:16.852Z,17.10
2019-01-25T06:18:46.512Z,15.77
2019-01-25T06:21:16.045Z,14.87
2019-01-25T06:23:45.552Z,14.57
2019-01-25T06:26:15.137Z,13.53
2019-01-25T06:28:47.773Z,14.70
2019-01-25T06:31:20.242Z,14.77
2019-01-25T06:33:49.704Z,15.33
2019-01-25T06:36:19.091Z,16.93
2019-01-25T06:38:48.506Z,16.67
2019-01-25T06:41:17.987Z,17.90
2019-01-25T06:43:47.512Z,17.67
2019-01-25T06:46:16.935Z,19.97
2019-01-25T06:48:47.291Z,20.70
2019-01-25T06:51:16.751Z,20.27
2019-01-25T06:53:46.175Z,18.33
2019-01-25T06:56:15.562Z,15.33
2019-01-25T06:59:03.952Z,17.83
2019-01-25T07:01:52.232Z,17.90
2019-01-25T07:04:21.567Z,16.87
2019-01-25T07:06:50.924Z,19.50
2019-01-25T07:09:20.409Z,14.63
2019-01-25T07:11:51.841Z,15.87
2019-01-25T07:14:20.910Z,17.13
2019-01-25T07:16:50.254Z,15.83
2019-01-25T07:19:19.710Z,14.70
2019-01-25T07:21:49.073Z,16.50
2019-01-25T07:24:18.546Z,18.20
2019-01-25T07:26:48.010Z,14.70
2019-01-25T07:29:17.436Z,16.60
2019-01-25T07:31:47.682Z,17.37
2019-01-25T07:34:17.183Z,14.70
2019-01-25T07:36:46.582Z,17.80
2019-01-25T07:39:28.694Z,14.77
2019-01-25T07:42:00.221Z,15.20
2019-01-25T07:44:29.157Z,16.77
2019-01-25T07:46:58.682Z,15.33
2019-01-25T07:49:28.051Z,15.70
2019-01-25T07:51:59.432Z,15.67
2019-01-25T07:54:28.537Z,15.93
2019-01-25T07:56:57.939Z,16.27
2019-01-25T07:59:28.370Z,15.57
2019-01-25T08:01:57.768Z,16.57
2019-01-25T08:04:27.272Z,16.97
2019-01-25T08:06:56.641Z,16.17
2019-01-25T08:09:26.114Z,15.10
2019-01-25T08:11:55.767Z,14.50
2019-01-25T08:14:25.215Z,15.70
2019-01-25T08:16:54.597Z,16.47
2019-01-25T08:19:24.137Z,14.13
2019-01-25T08:21:53.648Z,15.13
2019-01-25T08:24:23.111Z,15.57
2019-01-25T08:26:52.481Z,16.07
2019-01-25T08:29:27.851Z,14.87
2019-01-25T08:31:53.270Z,15.67
2019-01-25T08:34:24.945Z,14.23
2019-01-25T08:36:54.480Z,15.77
2019-01-25T08:39:23.918Z,16.63
2019-01-25T08:41:53.400Z,18.17
2019-01-25T08:44:22.991Z,16.10
2019-01-25T08:46:52.501Z,19.43
2019-01-25T08:49:22.352Z,16.37
2019-01-25T08:51:51.950Z,17.53
2019-01-25T08:54:21.428Z,15.30
2019-01-25T08:56:50.807Z,13.77
2019-01-25T08:59:20.196Z,15.87
2019-01-25T09:01:49.782Z,14.83
2019-01-25T09:04:19.195Z,17.23
2019-01-25T09:06:48.766Z,15.00
2019-01-25T09:09:18.203Z,17.07
2019-01-25T09:11:47.606Z,16.47
2019-01-25T09:14:17.027Z,13.53
2019-01-25T09:16:46.346Z,16.30
2019-01-25T09:19:15.785Z,18.10
2019-01-25T09:21:45.294Z,16.73
2019-01-25T09:24:14.710Z,14.73
2019-01-25T09:26:44.157Z,16.90
2019-01-25T09:29:13.576Z,14.33
2019-01-25T09:31:43.208Z,15.43
2019-01-25T09:34:12.602Z,14.53
2019-01-25T09:36:41.958Z,13.77
2019-01-25T09:39:11.322Z,14.00
2019-01-25T09:41:40.698Z,12.57
2019-01-25T09:44:10.062Z,14.50
2019-01-25T09:46:39.479Z,12.97
2019-01-25T09:49:08.963Z,14.20
2019-01-25T09:51:38.398Z,13.63
2019-01-25T09:54:07.871Z,13.77
2019-01-25T09:56:37.322Z,14.67
2019-01-25T09:59:07.016Z,14.23
2019-01-25T10:01:36.445Z,14.93
2019-01-25T10:04:06.469Z,16.40
2019-01-25T10:06:35.953Z,13.23
2019-01-25T10:09:08.938Z,13.70
2019-01-25T10:11:38.319Z,12.93
2019-01-25T10:14:07.684Z,12.73
2019-01-25T10:16:37.092Z,13.20
2019-01-25T10:19:06.477Z,12.00
2019-01-25T10:21:35.782Z,10.73
2019-01-25T10:24:05.295Z,12.77
2019-01-25T10:26:34.839Z,11.03
2019-01-25T10:29:04.385Z,10.67
2019-01-25T10:31:33.759Z,10.53
2019-01-25T10:34:03.247Z,13.73
2019-01-25T10:36:32.839Z,12.33
2019-01-25T10:39:02.148Z,13.20
2019-01-25T10:41:31.609Z,13.07
2019-01-25T10:44:01.017Z,11.30
2019-01-25T10:46:30.484Z,11.87
2019-01-25T10:48:59.929Z,13.60
2019-01-25T10:51:29.306Z,12.67
2019-01-25T10:53:58.800Z,13.03
2019-01-25T10:56:28.255Z,12.83
2019-01-25T10:58:57.575Z,13.13
2019-01-25T11:01:27.008Z,11.47
2019-01-25T11:03:56.455Z,11.87
2019-01-25T11:06:25.893Z,11.27
2019-01-25T11:08:55.329Z,10.80
2019-01-25T11:11:24.729Z,12.73
2019-01-25T11:13:54.204Z,11.30
2019-01-25T11:16:26.402Z,11.67
2019-01-25T11:18:56.278Z,14.40
2019-01-25T11:21:29.593Z,13.20
2019-01-25T11:23:59.075Z,12.87
2019-01-25T11:26:28.886Z,12.73
2019-01-25T11:28:58.288Z,12.30
2019-01-25T11:31:27.761Z,11.50
2019-01-25T11:33:57.084Z,16.23
2019-01-25T11:36:28.939Z,16.07
2019-01-25T11:38:58.328Z,11.70
2019-01-25T11:41:29.033Z,12.87
2019-01-25T11:43:58.554Z,12.80
2019-01-25T11:46:30.272Z,12.20
2019-01-25T11:48:59.759Z,11.47
2019-01-25T11:51:29.249Z,14.30
2019-01-25T11:53:58.656Z,12.93
2019-01-25T11:56:28.219Z,12.10
2019-01-25T11:58:57.651Z,12.63
2019-01-25T12:01:27.017Z,11.90
2019-01-25T12:03:56.382Z,12.73
2019-01-25T12:06:25.732Z,13.40
2019-01-25T12:08:56.596Z,13.33
2019-01-25T12:11:27.029Z,12.50
2019-01-25T12:13:56.539Z,13.70
2019-01-25T12:16:26.207Z,11.90
2019-01-25T12:18:55.515Z,12.73
2019-01-25T12:21:25.013Z,12.30
2019-01-25T12:23:54.453Z,11.17
2019-01-25T12:26:25.551Z,11.03
2019-01-25T12:28:55.082Z,11.63
2019-01-25T12:31:24.520Z,12.70
2019-01-25T12:33:54.263Z,12.73
2019-01-25T12:36:23.672Z,12.60
2019-01-25T12:38:53.272Z,12.03
2019-01-25T12:41:22.689Z,12.20
2019-01-25T12:43:52.147Z,10.90
2019-01-25T12:46:21.580Z,12.03
2019-01-25T12:48:50.984Z,11.70
2019-01-25T12:51:40.323Z,12.33
2019-01-25T12:54:09.719Z,13.27
2019-01-25T12:56:39.153Z,13.73
2019-01-25T12:59:08.524Z,12.50
2019-01-25T13:01:39.464Z,11.33
2019-01-25T13:04:09.059Z,11.03
2019-01-25T13:06:38.498Z,13.37
2019-01-25T13:09:11.812Z,11.77
2019-01-25T13:11:41.151Z,11.77
2019-01-25T13:14:10.557Z,11.70
2019-01-25T13:16:40.012Z,12.10
2019-01-25T13:19:09.422Z,11.80
2019-01-25T13:21:38.750Z,11.93
2019-01-25T13:24:08.142Z,12.93
2019-01-25T13:26:37.511Z,11.60
2019-01-25T13:29:06.834Z,11.60
2019-01-25T13:31:36.333Z,13.10
2019-01-25T13:34:06.107Z,11.97
2019-01-25T13:36:35.537Z,12.47
2019-01-25T13:39:09.135Z,11.03
2019-01-25T13:41:38.685Z,12.90
2019-01-25T13:44:07.984Z,13.60
2019-01-25T13:46:37.396Z,13.13
2019-01-25T13:49:06.787Z,15.40
2019-01-25T13:51:36.240Z,12.77
2019-01-25T13:54:05.825Z,12.57
2019-01-25T13:56:35.191Z,13.47
2019-01-25T13:59:04.833Z,13.83
2019-01-25T14:01:34.775Z,14.03
2019-01-25T14:04:04.299Z,14.20
2019-01-25T14:06:35.141Z,13.90
2019-01-25T14:09:07.781Z,13.67
2019-01-25T14:11:37.160Z,13.10
2019-01-25T14:14:06.582Z,15.23
2019-01-25T14:16:35.979Z,13.13
2019-01-25T14:19:05.507Z,12.80
2019-01-25T14:21:34.920Z,12.90
2019-01-25T14:24:04.572Z,13.20
2019-01-25T14:26:34.189Z,12.77
2019-01-25T14:29:03.548Z,15.37
2019-01-25T14:31:35.267Z,13.23
2019-01-25T14:34:04.846Z,15.10
2019-01-25T14:36:34.297Z,13.83
2019-01-25T14:39:05.384Z,15.27
2019-01-25T14:41:34.834Z,14.83
2019-01-25T14:44:04.615Z,15.13
2019-01-25T14:46:33.993Z,14.83
2019-01-25T14:49:03.472Z,14.43
2019-01-25T14:51:32.945Z,14.17
2019-01-25T14:54:02.338Z,13.87
2019-01-25T14:56:31.811Z,12.87
2019-01-25T14:59:01.284Z,15.57
2019-01-25T15:01:31.892Z,13.63
2019-01-25T15:04:01.313Z,16.10
2019-01-25T15:06:30.748Z,14.80
2019-01-25T15:09:00.201Z,14.20
2019-01-25T15:11:29.550Z,16.50
2019-01-25T15:14:02.493Z,14.87
2019-01-25T15:16:29.936Z,15.33
2019-01-25T15:18:59.329Z,15.93
2019-01-25T15:21:28.711Z,14.53
2019-01-25T15:23:58.087Z,15.60
2019-01-25T15:26:28.735Z,13.77
2019-01-25T15:28:58.054Z,15.60
2019-01-25T15:31:29.782Z,15.80
2019-01-25T15:33:59.234Z,14.37
2019-01-25T15:36:28.849Z,13.37
2019-01-25T15:38:58.271Z,13.27
2019-01-25T15:41:27.732Z,15.97
2019-01-25T15:43:57.200Z,16.53
2019-01-25T15:46:26.614Z,17.13
2019-01-25T15:48:55.972Z,14.67
2019-01-25T15:51:25.380Z,15.27
2019-01-25T15:53:54.742Z,17.07
2019-01-25T15:56:24.187Z,16.47
2019-01-25T15:58:53.586Z,20.03
2019-01-25T16:01:23.081Z,15.87
2019-01-25T16:03:52.458Z,16.43
2019-01-25T16:06:22.122Z,16.33
2019-01-25T16:08:51.484Z,15.97
2019-01-25T16:11:20.891Z,16.80
2019-01-25T16:13:50.556Z,18.80
2019-01-25T16:16:20.232Z,15.90
2019-01-25T16:18:49.697Z,18.77
2019-01-25T16:21:19.145Z,15.57
2019-01-25T16:23:48.592Z,16.23
2019-01-25T16:26:18.171Z,14.60
2019-01-25T16:28:47.728Z,15.33
2019-01-25T16:31:17.304Z,19.50
2019-01-25T16:33:46.793Z,17.57
2019-01-25T16:36:16.619Z,17.97
2019-01-25T16:38:46.079Z,17.57
2019-01-25T16:41:27.312Z,16.83
2019-01-25T16:43:56.870Z,16.13
2019-01-25T16:46:26.484Z,16.87
2019-01-25T16:48:56.970Z,19.40
2019-01-25T16:51:28.854Z,17.80
2019-01-25T16:53:58.309Z,20.03
2019-01-25T16:56:27.833Z,15.83
2019-01-25T16:58:57.273Z,17.17
2019-01-25T17:01:26.741Z,17.73
2019-01-25T17:03:56.364Z,18.77
2019-01-25T17:06:25.860Z,16.37
2019-01-25T17:08:55.290Z,20.17
2019-01-25T17:11:24.754Z,20.23
2019-01-25T17:13:54.098Z,19.13
2019-01-25T17:16:23.556Z,17.63
2019-01-25T17:18:53.085Z,18.67
2019-01-25T17:21:22.488Z,18.40
2019-01-25T17:24:11.022Z,17.00
2019-01-25T17:26:40.592Z,20.90
2019-01-25T17:29:11.461Z,21.73
2019-01-25T17:31:40.974Z,23.73
2019-01-25T17:34:10.361Z,21.87
2019-01-25T17:36:39.879Z,22.23
2019-01-25T17:39:14.772Z,23.40
2019-01-25T17:41:44.264Z,24.00
2019-01-25T17:44:13.695Z,23.13
2019-01-25T17:46:43.217Z,22.93
2019-01-25T17:49:12.740Z,22.33
2019-01-25T17:51:42.186Z,21.03
2019-01-25T17:54:11.712Z,21.43
2019-01-25T17:56:41.130Z,23.13
2019-01-25T17:59:10.661Z,26.43
2019-01-25T18:01:40.376Z,28.40
2019-01-25T18:04:09.946Z,28.93
2019-01-25T18:06:39.458Z,37.07
2019-01-25T18:09:09.261Z,33.80
2019-01-25T18:11:38.802Z,30.23
2019-01-25T18:14:08.354Z,29.77
2019-01-25T18:16:37.825Z,23.20
2019-01-25T18:19:07.405Z,20.50
2019-01-25T18:21:36.836Z,23.43
2019-01-25T18:24:06.348Z,23.10
2019-01-25T18:26:35.815Z,29.87
2019-01-25T18:29:12.301Z,27.93
2019-01-25T18:31:41.613Z,21.53
2019-01-25T18:34:10.947Z,21.67
2019-01-25T18:36:40.369Z,21.33
2019-01-25T18:39:09.930Z,21.97
2019-01-25T18:41:39.425Z,27.00
2019-01-25T18:44:08.880Z,31.77
2019-01-25T18:46:38.192Z,30.43
2019-01-25T18:49:07.650Z,27.53
2019-01-25T18:51:37.050Z,22.57
2019-01-25T18:54:06.689Z,23.47
2019-01-25T18:56:36.498Z,25.00
2019-01-25T18:59:05.825Z,24.60
2019-01-25T19:01:35.167Z,26.73
2019-01-25T19:04:04.639Z,23.67
2019-01-25T19:06:34.245Z,25.20
2019-01-25T19:09:08.521Z,24.50
2019-01-25T19:11:37.959Z,25.60
2019-01-25T19:14:07.540Z,27.20
2019-01-25T19:16:37.050Z,25.33
2019-01-25T19:19:06.514Z,26.47
2019-01-25T19:21:36.022Z,24.93
2019-01-25T19:24:05.895Z,25.30
2019-01-25T19:26:35.417Z,25.90
2019-01-25T19:29:04.979Z,25.13
2019-01-25T19:31:34.427Z,27.73
2019-01-25T19:34:04.090Z,30.03
2019-01-25T19:36:33.677Z,31.60
2019-01-25T19:39:05.335Z,31.57
2019-01-25T19:41:34.752Z,42.63
2019-01-25T19:44:04.484Z,38.63
2019-01-25T19:46:33.970Z,37.80
2019-01-25T19:49:03.497Z,38.37
2019-01-25T19:51:33.077Z,36.37
2019-01-25T19:54:02.816Z,32.50
2019-01-25T19:56:32.306Z,33.73
2019-01-25T19:59:01.792Z,27.37
2019-01-25T20:01:31.342Z,24.93
2019-01-25T20:04:00.939Z,25.83
2019-01-25T20:06:30.337Z,24.60
2019-01-25T20:08:59.736Z,24.03
2019-01-25T20:11:29.151Z,23.23
2019-01-25T20:13:58.774Z,29.37
2019-01-25T20:16:28.328Z,29.60
2019-01-25T20:18:58.996Z,30.57
2019-01-25T20:21:28.437Z,33.30
2019-01-25T20:23:59.047Z,31.37
2019-01-25T20:26:28.601Z,30.03
2019-01-25T20:28:58.062Z,29.33
2019-01-25T20:31:27.706Z,29.57
2019-01-25T20:33:57.098Z,27.23
2019-01-25T20:36:26.604Z,26.60
2019-01-25T20:38:56.167Z,26.57
2019-01-25T20:41:25.671Z,27.90
2019-01-25T20:43:55.155Z,29.63
2019-01-25T20:46:24.634Z,27.10
2019-01-25T20:48:53.998Z,27.00
2019-01-25T20:51:23.573Z,28.37
2019-01-25T20:53:53.015Z,28.67
2019-01-25T20:56:22.465Z,28.10
2019-01-25T20:58:52.044Z,31.60
2019-01-25T21:01:21.630Z,31.37
2019-01-25T21:03:51.083Z,31.43
2019-01-25T21:06:39.570Z,29.07
2019-01-25T21:09:11.137Z,29.47
2019-01-25T21:11:40.587Z,30.47
2019-01-25T21:14:10.004Z,32.40
2019-01-25T21:16:39.527Z,31.33
2019-01-25T21:19:08.919Z,33.77
2019-01-25T21:21:38.343Z,30.73
2019-01-25T21:24:07.818Z,32.43
2019-01-25T21:26:37.211Z,31.67
2019-01-25T21:29:06.874Z,32.00
2019-01-25T21:31:36.330Z,34.70
2019-01-25T21:34:05.751Z,35.07
2019-01-25T21:36:35.123Z,34.10
2019-01-25T21:39:07.315Z,32.63
2019-01-25T21:41:36.741Z,34.83
2019-01-25T21:44:06.326Z,31.37
2019-01-25T21:46:40.419Z,32.83
2019-01-25T21:49:07.713Z,30.80
2019-01-25T21:51:37.130Z,31.37
2019-01-25T21:54:06.530Z,33.13
2019-01-25T21:56:35.878Z,31.03
2019-01-25T21:59:05.397Z,30.77
2019-01-25T22:01:34.828Z,33.10
2019-01-25T22:04:04.513Z,34.30
2019-01-25T22:06:34.006Z,35.00
2019-01-25T22:09:04.245Z,33.97
2019-01-25T22:11:33.728Z,30.97
2019-01-25T22:14:03.298Z,36.77
2019-01-25T22:16:32.910Z,30.97
2019-01-25T22:19:02.395Z,33.37
2019-01-25T22:21:31.850Z,31.50
2019-01-25T22:24:01.345Z,30.53
2019-01-25T22:26:30.781Z,33.10
2019-01-25T22:29:01.485Z,31.67
2019-01-25T22:31:30.989Z,30.23
2019-01-25T22:34:00.462Z,30.87
2019-01-25T22:36:29.989Z,31.67
2019-01-25T22:38:59.443Z,34.03
2019-01-25T22:41:28.864Z,31.10
2019-01-25T22:43:58.259Z,30.33
2019-01-25T22:46:27.736Z,32.13
2019-01-25T22:48:57.209Z,34.33
2019-01-25T22:51:26.730Z,28.20
2019-01-25T22:53:56.234Z,28.63
2019-01-25T22:56:25.778Z,31.13
2019-01-25T22:58:55.409Z,26.60
2019-01-25T23:01:33.843Z,32.40
2019-01-25T23:04:47.253Z,34.43
2019-01-25T23:07:31.165Z,37.93
2019-01-25T23:10:02.868Z,36.50
2019-01-25T23:12:32.243Z,37.47
2019-01-25T23:15:01.603Z,33.27
2019-01-25T23:17:31.056Z,32.70
2019-01-25T23:20:00.492Z,30.87
2019-01-25T23:22:29.992Z,30.27
2019-01-25T23:24:59.376Z,28.73
2019-01-25T23:27:28.732Z,29.50
2019-01-25T23:29:58.184Z,29.83
2019-01-25T23:32:27.567Z,31.97
2019-01-25T23:34:56.920Z,28.63
2019-01-25T23:37:27.748Z,30.07
2019-01-25T23:39:57.105Z,33.53
2019-01-25T23:42:26.447Z,29.97
2019-01-25T23:44:56.015Z,29.27
2019-01-25T23:47:25.446Z,31.07
2019-01-25T23:49:55.014Z,29.70
2019-01-25T23:52:24.465Z,28.73
2019-01-25T23:54:53.956Z,28.47
2019-01-25T23:57:23.303Z,26.90
2019-01-25T23:59:52.671Z,30.93
